createdAt,value
2018-09-21T00:00:07.191Z,98401.77
2018-09-21T00:02:36.276Z,98401.16
2018-09-21T00:05:05.728Z,98401.34
2018-09-21T00:07:35.064Z,98405.62
2018-09-21T00:10:04.575Z,98399.72
2018-09-21T00:12:33.919Z,98396.08
2018-09-21T00:15:03.135Z,98393.22
2018-09-21T00:17:32.415Z,98395.55
2018-09-21T00:20:01.379Z,98397.22
2018-09-21T00:22:30.556Z,98394.55
2018-09-21T00:24:59.583Z,98398.44
2018-09-21T00:27:28.891Z,98398.63
2018-09-21T00:29:57.987Z,98392.91
2018-09-21T00:32:27.283Z,98402.18
2018-09-21T00:34:56.268Z,98396.51
2018-09-21T00:37:25.579Z,98400.14
2018-09-21T00:39:54.729Z,98396.73
2018-09-21T00:42:23.872Z,98392.50
2018-09-21T00:44:53.074Z,98386.95
2018-09-21T00:47:22.246Z,98380.78
2018-09-21T00:49:51.531Z,98384.83
2018-09-21T00:52:20.908Z,98374.69
2018-09-21T00:54:50.169Z,98384.11
2018-09-21T00:57:19.171Z,98384.08
2018-09-21T00:59:48.180Z,98381.35
2018-09-21T01:02:17.482Z,98386.11
2018-09-21T01:04:46.694Z,98386.98
2018-09-21T01:07:16.203Z,98388.16
2018-09-21T01:09:45.494Z,98386.49
2018-09-21T01:12:14.896Z,98377.50
2018-09-21T01:14:43.830Z,98380.19
2018-09-21T01:17:12.830Z,98383.36
2018-09-21T01:19:42.172Z,98385.33
2018-09-21T01:22:11.376Z,98391.03
2018-09-21T01:24:40.620Z,98387.33
2018-09-21T01:27:14.280Z,98386.69
2018-09-21T01:29:44.140Z,98392.02
2018-09-21T01:32:13.594Z,98390.09
2018-09-21T01:34:43.111Z,98386.80
2018-09-21T01:37:12.532Z,98385.47
2018-09-21T01:39:41.887Z,98387.86
2018-09-21T01:42:11.142Z,98390.27
2018-09-21T01:44:40.448Z,98387.66
2018-09-21T01:47:09.763Z,98389.02
2018-09-21T01:49:38.913Z,98386.32
2018-09-21T01:52:08.160Z,98387.57
2018-09-21T01:54:37.040Z,98391.72
2018-09-21T01:57:06.331Z,98391.99
2018-09-21T01:59:35.639Z,98386.89
2018-09-21T02:02:04.771Z,98386.15
2018-09-21T02:04:40.891Z,98387.09
2018-09-21T02:07:12.047Z,98390.12
2018-09-21T02:09:41.411Z,98381.80
2018-09-21T02:12:10.880Z,98380.73
2018-09-21T02:14:40.107Z,98384.59
2018-09-21T02:17:09.528Z,98380.38
2018-09-21T02:19:38.631Z,98381.74
2018-09-21T02:22:07.920Z,98382.75
2018-09-21T02:24:37.274Z,98382.47
2018-09-21T02:27:06.138Z,98380.23
2018-09-21T02:29:35.405Z,98376.13
2018-09-21T02:32:04.608Z,98382.20
2018-09-21T02:34:33.657Z,98371.07
2018-09-21T02:37:02.894Z,98372.20
2018-09-21T02:39:32.048Z,98372.70
2018-09-21T02:42:01.445Z,98374.21
2018-09-21T02:44:30.665Z,98382.19
2018-09-21T02:46:59.927Z,98372.58
2018-09-21T02:49:29.039Z,98379.94
2018-09-21T02:51:58.272Z,98378.34
2018-09-21T02:54:27.315Z,98375.38
2018-09-21T02:56:56.472Z,98373.80
2018-09-21T02:59:25.391Z,98379.08
2018-09-21T03:01:54.510Z,98378.59
2018-09-21T03:04:23.899Z,98381.57
2018-09-21T03:06:53.311Z,98379.09
2018-09-21T03:09:22.556Z,98375.50
2018-09-21T03:11:51.404Z,98372.78
2018-09-21T03:14:20.612Z,98377.36
2018-09-21T03:16:50.014Z,98379.73
2018-09-21T03:19:19.279Z,98376.75
2018-09-21T03:21:48.182Z,98374.64
2018-09-21T03:24:17.685Z,98379.14
2018-09-21T03:26:46.779Z,98376.89
2018-09-21T03:29:15.691Z,98372.38
2018-09-21T03:31:45.011Z,98372.53
2018-09-21T03:34:14.195Z,98373.64
2018-09-21T03:36:43.404Z,98371.19
2018-09-21T03:39:12.581Z,98374.74
2018-09-21T03:41:41.923Z,98375.86
2018-09-21T03:44:11.160Z,98378.19
2018-09-21T03:46:40.394Z,98381.52
2018-09-21T03:49:09.699Z,98376.29
2018-09-21T03:51:39.161Z,98375.42
2018-09-21T03:54:07.951Z,98370.08
2018-09-21T03:56:37.891Z,98372.53
2018-09-21T03:59:07.129Z,98370.95
2018-09-21T04:01:36.564Z,98369.11
2018-09-21T04:04:05.920Z,98380.72
2018-09-21T04:06:35.057Z,98380.06
2018-09-21T04:09:05.115Z,98375.30
2018-09-21T04:11:33.987Z,98381.06
2018-09-21T04:14:03.471Z,98376.38
2018-09-21T04:16:32.889Z,98380.27
2018-09-21T04:19:02.212Z,98381.52
2018-09-21T04:21:31.564Z,98376.44
2018-09-21T04:24:00.921Z,98372.86
2018-09-21T04:26:30.257Z,98377.55
2018-09-21T04:28:59.608Z,98378.22
2018-09-21T04:31:28.722Z,98380.52
2018-09-21T04:33:57.859Z,98374.53
2018-09-21T04:36:27.011Z,98377.69
2018-09-21T04:38:56.296Z,98377.68
2018-09-21T04:41:25.506Z,98380.39
2018-09-21T04:43:54.832Z,98379.80
2018-09-21T04:46:23.979Z,98386.55
2018-09-21T04:48:52.933Z,98385.59
2018-09-21T04:51:22.331Z,98383.63
2018-09-21T04:53:51.392Z,98383.00
2018-09-21T04:56:20.555Z,98384.40
2018-09-21T04:58:49.816Z,98391.06
2018-09-21T05:01:19.293Z,98392.23
2018-09-21T05:03:48.625Z,98393.41
2018-09-21T05:06:17.985Z,98398.22
2018-09-21T05:08:47.126Z,98402.86
2018-09-21T05:11:16.354Z,98405.55
2018-09-21T05:13:45.546Z,98400.77
2018-09-21T05:16:14.917Z,98399.23
2018-09-21T05:18:44.016Z,98404.98
2018-09-21T05:21:13.302Z,98401.22
2018-09-21T05:23:42.767Z,98399.73
2018-09-21T05:26:11.952Z,98399.08
2018-09-21T05:28:41.338Z,98394.71
2018-09-21T05:31:10.804Z,98388.67
2018-09-21T05:33:40.063Z,98388.55
2018-09-21T05:36:09.316Z,98390.25
2018-09-21T05:38:38.562Z,98385.12
2018-09-21T05:41:07.913Z,98387.06
2018-09-21T05:43:37.232Z,98386.81
2018-09-21T05:46:06.615Z,98388.20
2018-09-21T05:48:35.901Z,98392.58
2018-09-21T05:51:05.368Z,98397.88
2018-09-21T05:53:34.775Z,98398.14
2018-09-21T05:56:04.192Z,98399.08
2018-09-21T05:58:33.307Z,98396.52
2018-09-21T06:01:02.703Z,98395.72
2018-09-21T06:03:31.958Z,98390.32
2018-09-21T06:06:01.003Z,98393.35
2018-09-21T06:08:30.055Z,98396.44
2018-09-21T06:10:59.284Z,98398.77
2018-09-21T06:13:28.477Z,98402.34
2018-09-21T06:15:57.739Z,98399.20
2018-09-21T06:18:26.963Z,98401.35
2018-09-21T06:20:56.131Z,98402.64
2018-09-21T06:23:25.115Z,98398.75
2018-09-21T06:25:54.180Z,98398.94
2018-09-21T06:28:23.316Z,98401.35
2018-09-21T06:30:52.499Z,98398.42
2018-09-21T06:33:21.527Z,98392.60
2018-09-21T06:35:50.743Z,98398.58
2018-09-21T06:38:19.708Z,98404.52
2018-09-21T06:40:49.035Z,98408.45
2018-09-21T06:43:18.149Z,98406.59
2018-09-21T06:45:47.483Z,98399.53
2018-09-21T06:48:16.490Z,98399.55
2018-09-21T06:50:45.817Z,98400.24
2018-09-21T06:53:15.171Z,98401.86
2018-09-21T06:55:44.252Z,98407.14
2018-09-21T06:58:13.196Z,98405.06
2018-09-21T07:00:42.268Z,98404.01
2018-09-21T07:03:11.447Z,98404.52
2018-09-21T07:05:40.867Z,98407.24
2018-09-21T07:08:10.195Z,98411.13
2018-09-21T07:10:39.355Z,98412.09
2018-09-21T07:13:08.804Z,98408.36
2018-09-21T07:15:37.943Z,98405.86
2018-09-21T07:18:07.166Z,98415.72
2018-09-21T07:20:36.295Z,98413.52
2018-09-21T07:23:05.464Z,98414.94
2018-09-21T07:25:34.498Z,98413.09
2018-09-21T07:28:03.897Z,98410.55
2018-09-21T07:30:33.451Z,98410.33
2018-09-21T07:33:02.898Z,98416.35
2018-09-21T07:35:32.229Z,98412.75
2018-09-21T07:38:01.427Z,98411.77
2018-09-21T07:40:30.692Z,98420.17
2018-09-21T07:42:59.953Z,98424.72
2018-09-21T07:45:28.900Z,98423.36
2018-09-21T07:47:58.123Z,98413.62
2018-09-21T07:50:27.271Z,98417.63
2018-09-21T07:52:56.569Z,98421.25
2018-09-21T07:55:25.825Z,98423.91
2018-09-21T07:57:55.066Z,98417.39
2018-09-21T08:00:25.108Z,98408.76
2018-09-21T08:02:54.345Z,98413.66
2018-09-21T08:05:27.907Z,98410.52
2018-09-21T08:07:57.282Z,98412.48
2018-09-21T08:10:26.478Z,98410.22
2018-09-21T08:12:55.833Z,98411.17
2018-09-21T08:15:25.209Z,98415.03
2018-09-21T08:17:54.563Z,98412.12
2018-09-21T08:20:23.941Z,98411.36
2018-09-21T08:22:53.288Z,98414.19
2018-09-21T08:25:22.463Z,98415.40
2018-09-21T08:27:51.448Z,98415.92
2018-09-21T08:30:20.680Z,98403.38
2018-09-21T08:32:50.223Z,98396.42
2018-09-21T08:35:19.412Z,98400.70
2018-09-21T08:37:48.491Z,98400.83
2018-09-21T08:40:17.659Z,98399.22
2018-09-21T08:42:47.020Z,98392.48
2018-09-21T08:45:16.165Z,98390.66
2018-09-21T08:47:45.456Z,98397.58
2018-09-21T08:50:14.263Z,98386.76
2018-09-21T08:52:43.483Z,98389.06
2018-09-21T08:55:12.736Z,98392.59
2018-09-21T08:57:41.985Z,98380.32
2018-09-21T09:00:11.221Z,98374.09
2018-09-21T09:02:40.476Z,98374.22
2018-09-21T09:05:09.759Z,98369.82
2018-09-21T09:07:39.071Z,98366.66
2018-09-21T09:10:08.240Z,98366.05
2018-09-21T09:12:37.471Z,98366.33
2018-09-21T09:15:06.904Z,98360.55
2018-09-21T09:17:36.171Z,98365.91
2018-09-21T09:20:05.486Z,98362.22
2018-09-21T09:22:34.683Z,98361.02
2018-09-21T09:25:04.227Z,98358.00
2018-09-21T09:27:33.372Z,98360.13
2018-09-21T09:30:02.787Z,98358.55
2018-09-21T09:32:31.813Z,98353.92
2018-09-21T09:35:01.409Z,98354.03
2018-09-21T09:37:30.763Z,98346.58
2018-09-21T09:39:59.560Z,98351.66
2018-09-21T09:42:28.855Z,98351.14
2018-09-21T09:44:57.851Z,98343.39
2018-09-21T09:47:27.209Z,98336.14
2018-09-21T09:49:56.232Z,98332.08
2018-09-21T09:52:25.593Z,98331.02
2018-09-21T09:54:54.838Z,98328.72
2018-09-21T09:57:23.931Z,98331.72
2018-09-21T09:59:53.100Z,98328.47
2018-09-21T10:02:22.334Z,98332.89
2018-09-21T10:04:51.723Z,98332.75
2018-09-21T10:07:20.875Z,98335.72
2018-09-21T10:09:49.863Z,98330.14
2018-09-21T10:12:19.009Z,98336.56
2018-09-21T10:14:48.346Z,98335.58
2018-09-21T10:17:17.459Z,98326.50
2018-09-21T10:19:46.548Z,98329.23
2018-09-21T10:22:15.639Z,98327.78
2018-09-21T10:24:44.839Z,98335.68
2018-09-21T10:27:14.214Z,98326.62
2018-09-21T10:29:43.443Z,98330.78
2018-09-21T10:32:12.679Z,98324.41
2018-09-21T10:34:41.995Z,98322.33
2018-09-21T10:37:11.226Z,98316.77
2018-09-21T10:39:40.453Z,98312.30
2018-09-21T10:42:09.912Z,98310.85
2018-09-21T10:44:39.166Z,98307.50
2018-09-21T10:47:08.594Z,98301.92
2018-09-21T10:49:37.683Z,98306.24
2018-09-21T10:52:06.579Z,98306.84
2018-09-21T10:54:35.819Z,98302.42
2018-09-21T10:57:05.071Z,98289.05
2018-09-21T10:59:34.214Z,98291.92
2018-09-21T11:02:03.472Z,98295.03
2018-09-21T11:04:32.921Z,98297.83
2018-09-21T11:07:02.148Z,98294.23
2018-09-21T11:09:31.499Z,98287.16
2018-09-21T11:12:00.752Z,98279.48
2018-09-21T11:14:30.007Z,98282.95
2018-09-21T11:16:59.456Z,98272.27
2018-09-21T11:19:28.693Z,98273.23
2018-09-21T11:21:57.840Z,98278.53
2018-09-21T11:24:27.171Z,98279.06
2018-09-21T11:26:56.352Z,98269.47
2018-09-21T11:29:25.548Z,98262.13
2018-09-21T11:31:54.812Z,98265.20
2018-09-21T11:34:24.179Z,98261.44
2018-09-21T11:36:53.430Z,98262.11
2018-09-21T11:39:22.793Z,98261.19
2018-09-21T11:41:51.709Z,98250.20
2018-09-21T11:44:20.982Z,98255.34
2018-09-21T11:46:50.714Z,98247.77
2018-09-21T11:49:19.824Z,98248.80
2018-09-21T11:51:49.019Z,98247.98
2018-09-21T11:54:18.150Z,98247.52
2018-09-21T11:56:47.329Z,98238.91
2018-09-21T11:59:16.777Z,98248.30
2018-09-21T12:01:46.139Z,98245.94
2018-09-21T12:04:15.537Z,98243.39
2018-09-21T12:06:44.550Z,98253.57
2018-09-21T12:09:13.967Z,98245.19
2018-09-21T12:11:42.980Z,98241.98
2018-09-21T12:14:12.358Z,98235.00
2018-09-21T12:16:41.368Z,98233.64
2018-09-21T12:19:10.633Z,98228.63
2018-09-21T12:21:39.856Z,98228.94
2018-09-21T12:24:09.346Z,98224.03
2018-09-21T12:26:38.255Z,98220.88
2018-09-21T12:29:07.484Z,98220.08
2018-09-21T12:31:36.520Z,98214.99
2018-09-21T12:34:05.939Z,98213.50
2018-09-21T12:36:35.221Z,98213.88
2018-09-21T12:39:05.775Z,98209.94
2018-09-21T12:41:34.839Z,98210.48
2018-09-21T12:44:04.044Z,98207.11
2018-09-21T12:46:33.476Z,98204.69
2018-09-21T12:49:05.779Z,98196.78
2018-09-21T12:51:35.805Z,98194.53
2018-09-21T12:54:05.137Z,98199.92
2018-09-21T12:56:34.453Z,98197.89
2018-09-21T12:59:03.939Z,98195.56
2018-09-21T13:01:33.116Z,98193.34
2018-09-21T13:04:02.343Z,98192.60
2018-09-21T13:06:31.740Z,98196.91
2018-09-21T13:09:01.088Z,98194.05
2018-09-21T13:11:30.448Z,98186.09
2018-09-21T13:13:59.631Z,98186.72
2018-09-21T13:16:28.927Z,98189.95
2018-09-21T13:18:58.073Z,98187.73
2018-09-21T13:21:27.027Z,98182.27
2018-09-21T13:23:56.235Z,98182.58
2018-09-21T13:26:25.403Z,98181.66
2018-09-21T13:28:54.631Z,98165.04
2018-09-21T13:31:23.807Z,98167.90
2018-09-21T13:33:52.784Z,98169.50
2018-09-21T13:36:21.826Z,98167.20
2018-09-21T13:38:51.098Z,98167.92
2018-09-21T13:41:20.600Z,98162.19
2018-09-21T13:43:50.047Z,98159.78
2018-09-21T13:46:19.248Z,98157.70
2018-09-21T13:48:48.123Z,98162.38
2018-09-21T13:51:17.484Z,98158.04
2018-09-21T13:53:46.567Z,98163.83
2018-09-21T13:56:15.757Z,98159.41
2018-09-21T13:58:45.037Z,98155.58
2018-09-21T14:01:14.171Z,98160.44
2018-09-21T14:03:43.923Z,98151.56
2018-09-21T14:06:13.323Z,98155.91
2018-09-21T14:08:42.464Z,98151.19
2018-09-21T14:11:11.724Z,98160.06
2018-09-21T14:13:41.073Z,98162.98
2018-09-21T14:16:10.424Z,98153.94
2018-09-21T14:18:39.354Z,98154.98
2018-09-21T14:21:08.720Z,98144.14
2018-09-21T14:23:37.801Z,98151.24
2018-09-21T14:26:07.222Z,98151.36
2018-09-21T14:28:36.471Z,98151.52
2018-09-21T14:31:05.817Z,98148.79
2018-09-21T14:33:34.960Z,98148.02
2018-09-21T14:36:03.951Z,98147.09
2018-09-21T14:38:33.000Z,98142.02
2018-09-21T14:41:02.340Z,98139.23
2018-09-21T14:43:31.587Z,98142.71
2018-09-21T14:46:00.739Z,98144.92
2018-09-21T14:48:30.227Z,98133.48
2018-09-21T14:50:59.124Z,98136.95
2018-09-21T14:53:28.326Z,98138.94
2018-09-21T14:55:57.715Z,98136.38
2018-09-21T14:58:26.905Z,98131.81
2018-09-21T15:00:56.107Z,98141.08
2018-09-21T15:03:25.264Z,98141.44
2018-09-21T15:05:54.607Z,98138.75
2018-09-21T15:08:23.766Z,98142.78
2018-09-21T15:10:52.728Z,98146.15
2018-09-21T15:13:21.948Z,98141.39
2018-09-21T15:15:50.984Z,98149.51
2018-09-21T15:18:20.344Z,98141.73
2018-09-21T15:20:49.703Z,98140.87
2018-09-21T15:23:18.888Z,98148.50
2018-09-21T15:25:48.192Z,98143.22
2018-09-21T15:28:17.505Z,98145.95
2018-09-21T15:30:46.585Z,98149.36
2018-09-21T15:33:15.875Z,98146.67
2018-09-21T15:35:45.127Z,98142.97
2018-09-21T15:38:14.381Z,98146.77
2018-09-21T15:40:43.832Z,98149.59
2018-09-21T15:43:13.176Z,98151.49
2018-09-21T15:45:42.204Z,98149.11
2018-09-21T15:48:11.234Z,98143.64
2018-09-21T15:50:40.476Z,98151.07
2018-09-21T15:53:09.512Z,98152.70
2018-09-21T15:55:38.615Z,98147.81
2018-09-21T15:58:07.953Z,98154.50
2018-09-21T16:00:37.527Z,98150.52
2018-09-21T16:03:06.902Z,98150.34
2018-09-21T16:05:36.248Z,98150.04
2018-09-21T16:08:05.712Z,98151.58
2018-09-21T16:10:34.714Z,98155.57
2018-09-21T16:13:04.079Z,98154.66
2018-09-21T16:15:33.444Z,98161.88
2018-09-21T16:18:02.860Z,98164.13
2018-09-21T16:20:32.263Z,98158.56
2018-09-21T16:23:01.499Z,98163.75
2018-09-21T16:25:30.490Z,98164.98
2018-09-21T16:27:59.616Z,98165.77
2018-09-21T16:30:28.882Z,98170.31
2018-09-21T16:32:58.251Z,98166.30
2018-09-21T16:35:27.411Z,98167.91
2018-09-21T16:37:56.403Z,98167.18
2018-09-21T16:40:25.449Z,98170.25
2018-09-21T16:42:54.771Z,98164.87
2018-09-21T16:45:24.065Z,98162.82
2018-09-21T16:47:53.421Z,98165.38
2018-09-21T16:50:22.526Z,98161.80
2018-09-21T16:52:51.920Z,98164.00
2018-09-21T16:55:22.227Z,98164.78
2018-09-21T16:57:52.443Z,98167.67
2018-09-21T17:00:21.811Z,98170.80
2018-09-21T17:02:51.675Z,98169.59
2018-09-21T17:05:20.895Z,98177.11
2018-09-21T17:07:50.166Z,98169.92
2018-09-21T17:10:19.332Z,98177.33
2018-09-21T17:12:48.447Z,98174.77
2018-09-21T17:15:17.783Z,98169.64
2018-09-21T17:17:46.832Z,98176.64
2018-09-21T17:20:16.122Z,98173.85
2018-09-21T17:22:45.316Z,98179.28
2018-09-21T17:25:14.592Z,98183.14
2018-09-21T17:27:43.752Z,98185.06
2018-09-21T17:32:41.010Z,98193.95
2018-09-21T17:35:10.336Z,98202.15
2018-09-21T17:37:39.328Z,98203.44
2018-09-21T17:40:08.562Z,98198.41
2018-09-21T17:42:37.744Z,98203.34
2018-09-21T17:45:07.070Z,98200.63
2018-09-21T17:47:36.475Z,98208.34
2018-09-21T17:50:05.905Z,98213.09
2018-09-21T17:52:35.354Z,98206.59
2018-09-21T17:55:05.651Z,98213.09
2018-09-21T17:57:35.075Z,98220.19
2018-09-21T18:00:05.331Z,98222.56
2018-09-21T18:02:34.463Z,98219.78
2018-09-21T18:05:03.796Z,98218.55
2018-09-21T18:07:33.370Z,98219.38
2018-09-21T18:10:02.916Z,98221.05
2018-09-21T18:12:32.232Z,98223.77
2018-09-21T18:15:02.784Z,98222.48
2018-09-21T18:17:33.262Z,98231.39
2018-09-21T18:20:02.979Z,98226.56
2018-09-21T18:22:32.402Z,98234.42
2018-09-21T18:25:02.399Z,98238.83
2018-09-21T18:27:32.498Z,98235.98
2018-09-21T18:30:01.589Z,98238.50
2018-09-21T18:32:30.979Z,98245.09
2018-09-21T18:35:00.431Z,98246.31
2018-09-21T18:37:29.816Z,98242.53
2018-09-21T18:40:00.468Z,98242.84
2018-09-21T18:42:29.515Z,98240.23
2018-09-21T18:44:58.719Z,98243.21
2018-09-21T18:47:30.341Z,98242.77
2018-09-21T18:49:59.883Z,98243.81
2018-09-21T18:52:32.409Z,98247.55
2018-09-21T18:55:05.599Z,98248.31
2018-09-21T18:57:35.734Z,98254.23
2018-09-21T19:00:04.991Z,98248.93
2018-09-21T19:02:34.367Z,98244.95
2018-09-21T19:05:03.818Z,98250.48
2018-09-21T19:07:33.613Z,98252.59
2018-09-21T19:10:03.112Z,98252.88
2018-09-21T19:12:33.202Z,98253.26
2018-09-21T19:15:03.417Z,98253.64
2018-09-21T19:17:32.884Z,98259.93
2018-09-21T19:20:01.976Z,98257.55
2018-09-21T19:22:31.120Z,98259.48
2018-09-21T19:25:00.510Z,98259.75
2018-09-21T19:27:29.625Z,98258.63
2018-09-21T19:29:58.787Z,98253.88
2018-09-21T19:32:28.043Z,98256.85
2018-09-21T19:34:57.398Z,98258.19
2018-09-21T19:37:26.867Z,98253.73
2018-09-21T19:39:56.311Z,98255.69
2018-09-21T19:42:25.657Z,98259.59
2018-09-21T19:44:55.092Z,98262.91
2018-09-21T19:47:25.077Z,98265.77
2018-09-21T19:49:54.411Z,98255.99
2018-09-21T19:52:23.620Z,98260.71
2018-09-21T19:54:53.140Z,98262.44
2018-09-21T19:57:22.274Z,98265.56
2018-09-21T19:59:52.139Z,98272.52
2018-09-21T20:02:21.336Z,98270.42
2018-09-21T20:04:50.833Z,98270.69
2018-09-21T20:07:20.021Z,98268.69
2018-09-21T20:09:49.385Z,98270.78
2018-09-21T20:12:18.364Z,98267.17
2018-09-21T20:14:47.724Z,98263.84
2018-09-21T20:17:17.020Z,98267.25
2018-09-21T20:19:46.129Z,98271.91
2018-09-21T20:22:15.978Z,98270.93
2018-09-21T20:24:45.020Z,98274.27
2018-09-21T20:27:14.262Z,98269.70
2018-09-21T20:29:43.624Z,98271.74
2018-09-21T20:32:17.867Z,98267.95
2018-09-21T20:34:47.339Z,98262.97
2018-09-21T20:37:16.695Z,98258.98
2018-09-21T20:39:45.731Z,98264.55
2018-09-21T20:42:14.893Z,98262.03
2018-09-21T20:44:44.164Z,98265.27
2018-09-21T20:47:13.581Z,98263.50
2018-09-21T20:49:42.626Z,98264.27
2018-09-21T20:52:11.811Z,98263.39
2018-09-21T20:54:40.926Z,98270.03
2018-09-21T20:57:10.210Z,98263.83
2018-09-21T20:59:39.508Z,98256.63
2018-09-21T21:02:08.865Z,98256.63
2018-09-21T21:04:38.274Z,98251.31
2018-09-21T21:07:07.499Z,98251.71
2018-09-21T21:09:36.675Z,98248.66
2018-09-21T21:12:05.995Z,98256.04
2018-09-21T21:14:35.464Z,98260.39
2018-09-21T21:17:04.763Z,98254.46
2018-09-21T21:19:34.015Z,98257.08
2018-09-21T21:22:03.011Z,98258.87
2018-09-21T21:24:32.348Z,98261.58
2018-09-21T21:27:01.347Z,98259.84
2018-09-21T21:29:30.636Z,98260.17
2018-09-21T21:31:59.883Z,98256.83
2018-09-21T21:34:29.052Z,98261.17
2018-09-21T21:36:58.214Z,98252.95
2018-09-21T21:39:27.533Z,98261.09
2018-09-21T21:41:56.518Z,98256.79
2018-09-21T21:44:25.973Z,98256.10
2018-09-21T21:46:55.155Z,98256.10
2018-09-21T21:49:24.355Z,98254.31
2018-09-21T21:51:53.821Z,98258.09
2018-09-21T21:54:22.916Z,98254.95
2018-09-21T21:56:52.178Z,98259.07
2018-09-21T21:59:21.454Z,98262.09
2018-09-21T22:01:50.440Z,98268.22
2018-09-21T22:04:19.656Z,98260.39
2018-09-21T22:06:49.091Z,98263.50
2018-09-21T22:09:18.255Z,98265.93
2018-09-21T22:11:52.623Z,98267.81
2018-09-21T22:14:21.684Z,98265.24
2018-09-21T22:16:50.638Z,98269.09
2018-09-21T22:19:19.904Z,98264.41
2018-09-21T22:21:49.051Z,98258.97
2018-09-21T22:24:18.274Z,98256.78
2018-09-21T22:26:47.536Z,98262.86
2018-09-21T22:29:16.460Z,98258.80
2018-09-21T22:31:45.558Z,98260.52
2018-09-21T22:34:14.471Z,98261.25
2018-09-21T22:36:43.674Z,98255.16
2018-09-21T22:39:12.907Z,98255.43
2018-09-21T22:41:42.211Z,98255.37
2018-09-21T22:44:11.396Z,98249.14
2018-09-21T22:46:40.743Z,98250.41
2018-09-21T22:49:24.823Z,98253.86
2018-09-21T22:51:53.707Z,98247.27
2018-09-21T22:54:23.076Z,98249.47
2018-09-21T22:56:52.107Z,98247.50
2018-09-21T22:59:21.481Z,98248.63
2018-09-21T23:01:50.835Z,98250.95
2018-09-21T23:04:20.031Z,98246.44
2018-09-21T23:06:49.191Z,98247.59
2018-09-21T23:09:18.376Z,98236.52
2018-09-21T23:11:47.610Z,98242.61
2018-09-21T23:14:16.610Z,98240.63
2018-09-21T23:16:45.851Z,98240.73
2018-09-21T23:19:14.735Z,98231.84
2018-09-21T23:21:44.157Z,98238.11
2018-09-21T23:24:13.481Z,98243.84
2018-09-21T23:26:42.431Z,98247.52
2018-09-21T23:29:11.672Z,98247.83
2018-09-21T23:31:40.625Z,98246.58
2018-09-21T23:34:10.035Z,98247.30
2018-09-21T23:36:39.232Z,98244.34
2018-09-21T23:39:10.016Z,98246.27
2018-09-21T23:41:39.668Z,98245.80
2018-09-21T23:44:09.531Z,98247.59
2018-09-21T23:46:38.891Z,98243.70
2018-09-21T23:49:08.101Z,98239.02
2018-09-21T23:51:37.323Z,98236.92
2018-09-21T23:54:06.723Z,98238.73
2018-09-21T23:56:36.127Z,98236.30
2018-09-21T23:59:05.427Z,98243.09
